Time;durP1;ratioP1;P1;durP2;ratioP2;P2;SDS_P1;SDS_P2;PMS_P1;PMS_P2;Temp;Humidity;BMP_temperature;BMP_pressure;BME280_temperature;BME280_humidity;BME280_pressure;Samples;Min_cycle;Max_cycle;Signal;HPM_P1;HPM_P2
2023/08/26 00:00:17;;;;;;;4.30;4.00;;;;;;;31.09;54.38;100808.94;4917713;28;66688;-37
2023/08/26 00:02:47;;;;;;;3.60;3.35;;;;;;;31.11;55.47;100806.81;4914757;28;70092;-37
2023/08/26 00:05:18;;;;;;;3.05;2.78;;;;;;;31.14;55.59;100811.78;4917593;28;66463;-36
2023/08/26 00:07:48;;;;;;;2.28;2.08;;;;;;;31.15;55.77;100808.03;4913672;28;70016;-37
2023/08/26 00:10:18;;;;;;;14.50;5.25;;;;;;;30.86;58.13;100765.38;4922362;28;66080;-37
2023/08/26 00:12:48;;;;;;;12.55;10.65;;;;;;;31.20;63.67;100814.66;4912329;28;70069;-37
2023/08/26 00:15:18;;;;;;;24.48;15.13;;;;;;;31.27;65.42;100827.09;4910395;28;66341;-37
2023/08/26 00:17:48;;;;;;;20.33;12.68;;;;;;;31.25;68.18;100839.19;4913303;28;70458;-37
2023/08/26 00:20:21;;;;;;;13.65;10.98;;;;;;;30.91;69.77;100784.50;4915031;28;66337;-38
2023/08/26 00:22:51;;;;;;;16.67;8.88;;;;;;;31.25;70.18;100839.19;4904617;28;69368;-36
2023/08/26 00:25:21;;;;;;;28.23;10.45;;;;;;;31.29;70.07;100841.25;4911241;28;66320;-38
2023/08/26 00:27:51;;;;;;;20.27;9.75;;;;;;;31.34;70.67;100845.97;4917431;28;69782;-37
2023/08/26 00:30:22;;;;;;;15.68;7.75;;;;;;;31.36;70.97;100847.44;4912057;28;66602;-37
2023/08/26 00:32:51;;;;;;;9.50;7.22;;;;;;;31.36;70.90;100857.47;4889675;28;69909;-38
2023/08/26 00:35:22;;;;;;;9.05;6.50;;;;;;;31.37;71.00;100850.97;4907574;28;65533;-37
2023/08/26 00:37:52;;;;;;;8.98;6.90;;;;;;;31.31;71.27;100849.13;4909281;28;70469;-38
2023/08/26 00:40:23;;;;;;;12.27;7.25;;;;;;;31.40;71.76;100869.53;4910563;28;66097;-38
2023/08/26 00:42:54;;;;;;;9.75;6.95;;;;;;;31.41;71.39;100859.50;4905822;28;70159;-37
2023/08/26 00:45:25;;;;;;;12.03;6.97;;;;;;;31.35;72.15;100850.38;4931307;28;65626;-41
2023/08/26 00:47:55;;;;;;;4.97;4.57;;;;;;;31.35;71.96;100855.78;4895620;28;69461;-38
2023/08/26 00:50:28;;;;;;;;;;;;;;;31.14;73.34;100862.44;4921341;28;66118;-37
2023/08/26 00:52:59;;;;;;;4.40;3.83;;;;;;;31.33;69.31;100857.88;4903036;28;69239;-38
2023/08/26 00:55:30;;;;;;;3.97;3.58;;;;;;;31.36;68.23;100849.34;4905333;28;66344;-38
2023/08/26 00:58:00;;;;;;;4.82;3.45;;;;;;;31.34;67.82;100843.28;4923320;28;71517;-38
2023/08/26 01:00:31;;;;;;;3.30;2.70;;;;;;;31.46;67.44;100848.84;4907254;28;66155;-38
2023/08/26 01:03:01;;;;;;;3.65;3.35;;;;;;;31.64;69.92;100850.69;4913643;28;70265;-37
2023/08/26 01:05:32;;;;;;;3.87;3.50;;;;;;;31.58;70.81;100844.31;4919260;28;66351;-37
2023/08/26 01:08:05;;;;;;;5.57;4.70;;;;;;;31.65;70.90;100850.50;4900449;28;70223;-37
2023/08/26 01:10:57;;;;;;;6.43;4.10;;;;;;;31.66;70.90;100856.75;4903527;28;66339;-36
2023/08/26 01:13:47;;;;;;;3.58;3.28;;;;;;;31.37;68.55;100813.03;4897360;28;69030;-38
2023/08/26 01:16:21;;;;;;;3.22;2.58;;;;;;;31.68;67.72;100855.47;4907155;28;65645;-36
2023/08/26 01:18:52;;;;;;;2.50;2.20;;;;;;;31.72;67.28;100862.06;4891179;28;70523;-36
2023/08/26 01:21:31;;;;;;;8.03;2.97;;;;;;;31.32;66.92;100783.06;4883818;28;66419;-35
2023/08/26 01:24:01;;;;;;;3.42;2.20;;;;;;;31.76;66.89;100857.88;4908284;28;69065;-35
2023/08/26 01:26:31;;;;;;;2.42;1.90;;;;;;;31.78;66.58;100860.34;4906013;28;65626;-34
2023/08/26 01:29:01;;;;;;;2.78;1.88;;;;;;;31.81;66.45;100857.16;4917460;28;69096;-36
2023/08/26 01:31:32;;;;;;;1.92;1.73;;;;;;;31.80;66.48;100852.81;4889200;28;65277;-38
2023/08/26 01:34:22;;;;;;;1.98;1.73;;;;;;;31.75;67.02;100855.38;4922044;28;69258;-37
2023/08/26 01:36:56;;;;;;;2.15;1.20;;;;;;;31.78;66.02;100842.16;4926467;28;65642;-36
2023/08/26 01:39:27;;;;;;;2.13;1.88;;;;;;;31.81;66.13;100854.44;4913452;28;69505;-36
2023/08/26 01:42:00;;;;;;;3.47;2.38;;;;;;;31.90;66.33;100863.97;4925915;28;66523;-36
2023/08/26 01:44:31;;;;;;;2.60;2.40;;;;;;;31.88;66.08;100849.78;4914077;28;70056;-35
2023/08/26 01:47:04;;;;;;;3.15;2.42;;;;;;;31.98;66.02;100866.41;4895646;28;66012;-35
2023/08/26 01:49:35;;;;;;;;;;;;;;;31.69;68.46;100867.13;4931679;28;70416;-36
2023/08/26 01:52:05;;;;;;;8.13;3.60;;;;;;;31.96;65.96;100863.06;4896582;28;65431;-35
2023/08/26 01:54:35;;;;;;;3.85;3.30;;;;;;;31.98;66.27;100860.97;4891827;28;69215;-35
2023/08/26 01:57:08;;;;;;;3.63;3.28;;;;;;;32.01;66.29;100860.50;4909868;28;66445;-35
2023/08/26 01:59:39;;;;;;;3.55;3.25;;;;;;;32.02;66.55;100845.88;4886616;28;71362;-35
2023/08/26 02:02:09;;;;;;;6.38;3.55;;;;;;;32.04;66.35;100857.34;4892957;28;66027;-35
2023/08/26 02:04:40;;;;;;;4.13;3.17;;;;;;;32.08;66.36;100859.59;4903848;28;69667;-35
2023/08/26 02:07:11;;;;;;;3.88;3.47;;;;;;;32.09;66.01;100850.38;4922453;28;65580;-35
2023/08/26 02:09:41;;;;;;;4.50;3.33;;;;;;;32.12;66.15;100849.91;4905114;28;70481;-35
2023/08/26 02:12:11;;;;;;;4.63;3.00;;;;;;;32.12;66.15;100849.91;4923347;28;66746;-34
2023/08/26 02:14:41;;;;;;;4.50;2.92;;;;;;;32.13;66.27;100848.88;4917550;28;70133;-35
2023/08/26 02:17:11;;;;;;;4.50;2.67;;;;;;;32.19;66.04;100850.66;4912666;28;65572;-35
2023/08/26 02:19:42;;;;;;;3.85;2.38;;;;;;;32.21;66.19;100837.69;4915342;28;70262;-35
2023/08/26 02:22:12;;;;;;;2.58;2.20;;;;;;;32.23;66.03;100841.00;4887851;28;66005;-36
2023/08/26 02:24:42;;;;;;;2.20;2.00;;;;;;;32.22;66.01;100836.63;4924821;28;70967;-36
2023/08/26 02:27:12;;;;;;;2.28;2.08;;;;;;;32.28;65.92;100833.00;4889191;28;66035;-35
2023/08/26 02:29:42;;;;;;;3.92;1.80;;;;;;;32.29;65.79;100845.53;4916953;28;69014;-35
2023/08/26 02:32:13;;;;;;;2.22;1.65;;;;;;;32.31;65.65;100837.13;4900695;28;66446;-35
2023/08/26 02:34:43;;;;;;;2.20;1.80;;;;;;;32.30;65.65;100835.50;4921370;28;70137;-36
2023/08/26 02:37:14;;;;;;;1.98;1.35;;;;;;;32.28;65.72;100828.38;4905542;28;65905;-36
2023/08/26 02:39:45;;;;;;;2.33;1.60;;;;;;;32.36;65.91;100824.53;4922281;28;69940;-34
2023/08/26 02:42:15;;;;;;;2.30;1.55;;;;;;;32.04;66.68;100773.22;4918360;28;66344;-35
2023/08/26 02:44:45;;;;;;;3.55;2.58;;;;;;;32.42;67.22;100820.88;4918855;28;70549;-36
2023/08/26 02:47:16;;;;;;;5.00;2.40;;;;;;;32.43;67.75;100825.25;4908749;28;65322;-35
2023/08/26 02:49:46;;;;;;;5.32;3.33;;;;;;;32.41;68.07;100827.38;4903489;28;69259;-35
2023/08/26 02:52:18;;;;;;;6.88;2.67;;;;;;;32.35;68.25;100812.00;4894324;28;66748;-35
2023/08/26 02:54:48;;;;;;;4.45;2.92;;;;;;;32.38;68.83;100814.25;4916815;28;70703;-35
2023/08/26 02:57:22;;;;;;;3.92;2.75;;;;;;;32.40;68.31;100811.28;4912073;28;65258;-35
2023/08/26 02:59:52;;;;;;;3.08;2.53;;;;;;;32.42;67.79;100812.72;4927459;28;70046;-35
2023/08/26 03:02:24;;;;;;;5.65;2.75;;;;;;;32.41;68.12;100824.66;4922784;28;66334;-35
2023/08/26 03:04:55;;;;;;;5.47;3.17;;;;;;;32.42;67.89;100818.16;4909528;28;69484;-36
2023/08/26 03:07:25;;;;;;;3.38;2.83;;;;;;;32.46;67.86;100824.00;4905863;28;66712;-35
2023/08/26 03:09:57;;;;;;;8.35;2.63;;;;;;;32.44;68.15;100821.47;4898397;29;69143;-37
2023/08/26 03:12:28;;;;;;;5.83;2.93;;;;;;;32.45;67.96;100823.13;4909759;28;64777;-35
2023/08/26 03:14:58;;;;;;;4.40;3.05;;;;;;;32.16;67.88;100742.56;4892840;28;69312;-35
2023/08/26 03:17:28;;;;;;;3.95;2.17;;;;;;;32.46;66.72;100797.66;4891360;28;65160;-35
2023/08/26 03:19:59;;;;;;;7.28;2.15;;;;;;;32.37;66.33;100804.44;4910879;28;69987;-34
2023/08/26 03:22:29;;;;;;;6.25;1.83;;;;;;;32.28;64.50;100789.56;4898514;28;65128;-35
2023/08/26 03:25:00;;;;;;;6.10;1.92;;;;;;;32.26;62.81;100791.66;4894555;28;70071;-35
2023/08/26 03:27:31;;;;;;;5.45;1.40;;;;;;;32.20;61.60;100789.88;4903640;28;66313;-34
2023/08/26 03:30:01;;;;;;;1.85;0.90;;;;;;;32.22;60.37;100795.91;4909242;28;70014;-35
2023/08/26 03:32:31;;;;;;;1.63;1.10;;;;;;;32.20;59.49;100798.03;4905400;28;66097;-35
2023/08/26 03:35:02;;;;;;;1.40;0.80;;;;;;;32.10;58.22;100782.31;4912018;28;70548;-35
2023/08/26 03:37:33;;;;;;;;;;;;;;;31.90;57.34;100788.00;4889424;28;66615;-33
2023/08/26 03:40:07;;;;;;;0.90;0.60;;;;;;;32.06;56.62;100781.13;4909994;28;69937;-34
2023/08/26 03:42:38;;;;;;;1.20;0.57;;;;;;;32.02;55.60;100785.38;4911912;28;65398;-34
2023/08/26 03:45:09;;;;;;;2.42;1.35;;;;;;;31.98;55.73;100782.28;4910456;28;70177;-36
2023/08/26 03:47:39;;;;;;;1.48;0.70;;;;;;;31.92;54.94;100768.78;4911869;28;67699;-35
2023/08/26 03:50:09;;;;;;;1.33;0.50;;;;;;;31.91;54.15;100767.97;4910476;28;69829;-34
2023/08/26 03:52:39;;;;;;;1.42;1.00;;;;;;;31.87;54.05;100765.91;4896823;28;66491;-34
2023/08/26 03:55:10;;;;;;;1.83;0.80;;;;;;;31.81;53.56;100754.09;4904219;28;70109;-34
2023/08/26 03:57:41;;;;;;;1.02;0.77;;;;;;;31.78;53.09;100763.50;4916129;28;66166;-35
2023/08/26 04:00:12;;;;;;;1.00;0.70;;;;;;;31.75;53.03;100752.31;4906342;28;70628;-36
2023/08/26 04:02:42;;;;;;;2.92;1.15;;;;;;;31.78;52.36;100751.84;4911178;28;66884;-35
2023/08/26 04:05:13;;;;;;;2.40;0.70;;;;;;;31.45;51.87;100690.75;4919478;28;69571;-34
2023/08/26 04:07:44;;;;;;;1.05;0.60;;;;;;;31.73;51.56;100721.88;4900858;28;64931;-35
2023/08/26 04:10:14;;;;;;;0.98;0.52;;;;;;;31.71;50.42;100713.16;4893249;28;69139;-35
2023/08/26 04:12:44;;;;;;;1.00;0.70;;;;;;;31.79;50.12;100727.22;4920742;28;66642;-34
2023/08/26 04:15:14;;;;;;;1.40;0.50;;;;;;;31.78;49.40;100724.72;4909542;28;70402;-35
2023/08/26 04:17:44;;;;;;;1.02;0.50;;;;;;;31.78;49.56;100725.53;4919778;28;66072;-34
2023/08/26 04:20:17;;;;;;;3.03;0.60;;;;;;;31.75;48.95;100714.34;4912805;28;43565;-33
2023/08/26 04:22:47;;;;;;;4.75;0.70;;;;;;;31.72;48.78;100701.25;4917314;28;66781;-35
2023/08/26 04:25:17;;;;;;;1.48;0.50;;;;;;;31.70;50.10;100696.03;4915107;28;70396;-34
2023/08/26 04:27:47;;;;;;;0.80;0.60;;;;;;;31.67;48.99;100701.09;4885339;28;66172;-34
2023/08/26 04:30:17;;;;;;;1.15;0.60;;;;;;;31.63;48.44;100697.22;4901815;28;70594;-34
2023/08/26 04:32:48;;;;;;;1.00;0.68;;;;;;;31.57;48.40;100685.41;4916886;28;66154;-34
2023/08/26 04:35:18;;;;;;;0.88;0.55;;;;;;;31.60;47.89;100688.47;4901770;28;70759;-35
2023/08/26 04:37:48;;;;;;;0.90;0.43;;;;;;;31.59;47.55;100694.09;4908111;28;64812;-35
2023/08/26 04:40:18;;;;;;;0.88;0.57;;;;;;;31.56;47.09;100691.84;4912955;28;70346;-34
2023/08/26 04:42:49;;;;;;;1.00;0.60;;;;;;;31.51;46.96;100681.72;4908223;28;66068;-34
2023/08/26 04:45:19;;;;;;;0.85;0.60;;;;;;;31.55;46.76;100677.47;4889434;28;70253;-33
2023/08/26 04:47:49;;;;;;;1.05;0.50;;;;;;;31.30;46.97;100641.53;4906415;28;66387;-35
2023/08/26 04:50:19;;;;;;;1.80;0.57;;;;;;;31.54;46.62;100675.84;4889605;28;69613;-34
2023/08/26 04:52:50;;;;;;;1.30;0.60;;;;;;;31.47;46.89;100664.25;4906583;28;65681;-33
2023/08/26 04:55:20;;;;;;;3.00;0.50;;;;;;;31.44;46.24;100642.19;4886339;28;69586;-34
2023/08/26 04:57:53;;;;;;;0.80;0.70;;;;;;;31.51;46.42;100656.47;4902140;28;66346;-34
2023/08/26 05:00:26;;;;;;;0.90;0.55;;;;;;;31.47;46.58;100647.16;4920153;28;70008;-34
2023/08/26 05:02:56;;;;;;;3.60;0.50;;;;;;;31.48;46.26;100644.22;4901603;28;66956;-39
2023/08/26 05:05:28;;;;;;;3.13;0.70;;;;;;;31.49;46.11;100635.03;4920628;28;70117;-36
2023/08/26 05:07:58;;;;;;;2.63;0.60;;;;;;;31.47;46.13;100626.28;4927301;28;66722;-35
2023/08/26 05:10:28;;;;;;;3.50;0.60;;;;;;;31.48;46.38;100633.38;4919227;28;70103;-34
2023/08/26 05:12:58;;;;;;;1.17;0.60;;;;;;;31.46;46.33;100629.25;4897896;28;66800;-35
2023/08/26 05:15:29;;;;;;;4.97;0.50;;;;;;;31.42;45.84;100620.72;4916048;28;70737;-36
2023/08/26 05:17:59;;;;;;;0.73;0.40;;;;;;;31.45;45.47;100616.75;4906081;28;66164;-36
2023/08/26 05:20:30;;;;;;;0.93;0.50;;;;;;;31.47;45.77;100609.22;4903919;28;69540;-40
2023/08/26 05:23:00;;;;;;;0.98;0.68;;;;;;;31.47;45.35;100618.16;4907575;28;66149;-35
2023/08/26 05:25:30;;;;;;;1.45;0.47;;;;;;;31.48;45.54;100614.41;4913526;28;69099;-33
2023/08/26 05:28:04;;;;;;;0.90;0.50;;;;;;;31.47;45.46;100612.75;4913436;28;65549;-37
2023/08/26 05:30:34;;;;;;;0.73;0.40;;;;;;;31.43;44.67;100592.59;4915253;28;69459;-35
2023/08/26 05:33:05;;;;;;;3.40;0.88;;;;;;;31.48;45.90;100611.72;4905628;28;66746;-35
2023/08/26 05:35:36;;;;;;;0.70;0.53;;;;;;;31.47;45.91;100604.59;4897396;28;70000;-37
2023/08/26 05:38:05;;;;;;;0.63;0.40;;;;;;;31.50;45.50;100598.72;4920408;28;66384;-37
2023/08/26 05:40:38;;;;;;;0.85;0.40;;;;;;;31.40;45.04;100571.38;4920493;28;69845;-37
2023/08/26 05:43:08;;;;;;;1.23;0.50;;;;;;;31.46;44.75;100581.28;4903228;28;65387;-36
2023/08/26 05:45:39;;;;;;;1.35;0.40;;;;;;;31.54;45.04;100578.25;4907911;28;70208;-36
2023/08/26 05:48:09;;;;;;;1.25;0.40;;;;;;;31.55;44.50;100569.03;4897275;28;66853;-36
2023/08/26 05:50:39;;;;;;;1.02;0.40;;;;;;;31.56;43.85;100570.69;4912180;28;70778;-37
2023/08/26 05:53:10;;;;;;;0.98;0.50;;;;;;;31.57;44.24;100575.06;4896932;28;65513;-37
2023/08/26 05:55:44;;;;;;;0.55;0.47;;;;;;;31.57;44.01;100550.66;4918537;28;69270;-36
2023/08/26 05:58:14;;;;;;;1.70;0.60;;;;;;;31.59;44.78;100559.41;4896544;28;66198;-35
2023/08/26 06:00:45;;;;;;;0.80;0.40;;;;;;;31.64;44.93;100560.56;4894795;28;70029;-34
2023/08/26 06:03:15;;;;;;;1.25;0.50;;;;;;;31.53;44.33;100544.03;4899884;28;66425;-35
2023/08/26 06:05:45;;;;;;;1.05;0.60;;;;;;;31.71;45.04;100547.75;4923624;28;70242;-34
2023/08/26 06:08:15;;;;;;;6.38;0.57;;;;;;;31.85;46.61;100554.59;4915900;28;66161;-34
2023/08/26 06:10:46;;;;;;;1.35;0.70;;;;;;;31.97;46.78;100546.47;4895336;28;70176;-35
2023/08/26 06:13:16;;;;;;;5.90;0.50;;;;;;;31.97;47.07;100533.75;4917982;28;66387;-36
2023/08/26 06:15:56;;;;;;;2.70;0.60;;;;;;;31.71;46.80;100479.94;4909484;28;69720;-33
2023/08/26 06:18:28;;;;;;;1.02;0.50;;;;;;;32.26;47.62;100542.81;4917865;28;66256;-34
2023/08/26 06:20:58;;;;;;;1.15;0.57;;;;;;;32.34;47.81;100535.34;4907838;28;70569;-35
2023/08/26 06:23:29;;;;;;;1.95;0.60;;;;;;;32.47;47.86;100538.66;4916591;28;66893;-35
2023/08/26 06:26:00;;;;;;;1.05;0.55;;;;;;;32.53;48.01;100522.50;4915569;28;68810;-34
2023/08/26 06:28:30;;;;;;;1.65;0.55;;;;;;;32.65;48.52;100520.56;4916261;28;66056;-35
2023/08/26 06:31:01;;;;;;;1.08;0.60;;;;;;;32.71;48.39;100519.63;4892781;28;69430;-35
2023/08/26 06:33:37;;;;;;;1.23;0.65;;;;;;;32.78;48.45;100523.00;4900088;28;65464;-35
2023/08/26 06:36:09;;;;;;;0.93;0.50;;;;;;;32.84;48.67;100503.00;4899109;28;70519;-34
2023/08/26 06:38:41;;;;;;;1.27;0.60;;;;;;;32.88;48.92;100501.47;4904987;28;66068;-35
2023/08/26 06:41:11;;;;;;;0.65;0.50;;;;;;;32.91;49.30;100492.00;4917063;28;70132;-33
2023/08/26 06:43:41;;;;;;;1.85;1.10;;;;;;;33.01;48.98;100494.09;4931579;28;65727;-35
2023/08/26 06:46:21;;;;;;;1.00;0.60;;;;;;;33.06;48.96;100500.47;4895348;28;69131;-35
2023/08/26 06:48:51;;;;;;;1.92;0.85;;;;;;;33.11;49.33;100484.25;4922208;28;66233;-34
2023/08/26 06:51:22;;;;;;;1.40;0.70;;;;;;;33.09;49.44;100469.25;4912278;28;69198;-36
2023/08/26 06:53:52;;;;;;;1.65;0.68;;;;;;;33.17;49.58;100466.13;4899190;28;67537;-35
2023/08/26 06:56:23;;;;;;;1.00;0.80;;;;;;;33.26;49.80;100467.38;4894810;28;70065;-34
2023/08/26 06:58:53;;;;;;;2.08;0.70;;;;;;;33.30;49.48;100465.00;4924314;28;65241;-35
2023/08/26 07:01:23;;;;;;;2.65;0.70;;;;;;;33.34;50.22;100456.09;4937932;28;69521;-35
2023/08/26 07:03:53;;;;;;;1.20;0.70;;;;;;;33.41;49.94;100444.25;4912802;28;66563;-35
2023/08/26 07:06:26;;;;;;;0.80;0.80;;;;;;;33.44;50.03;100455.44;4914670;28;70389;-35
2023/08/26 07:08:57;;;;;;;1.15;0.80;;;;;;;33.51;50.03;100458.78;4898733;28;65543;-36
2023/08/26 07:11:27;;;;;;;1.57;0.90;;;;;;;33.26;50.80;100404.84;4926565;28;70361;-36
2023/08/26 07:13:59;;;;;;;2.35;1.65;;;;;;;33.52;52.25;100440.59;4913282;28;66176;-35
2023/08/26 07:16:29;;;;;;;5.65;1.90;;;;;;;33.65;53.06;100437.53;4912107;28;69814;-36
2023/08/26 07:18:59;;;;;;;2.10;1.90;;;;;;;33.71;53.84;100439.28;4922979;28;66106;-35
2023/08/26 07:21:29;;;;;;;2.35;2.08;;;;;;;33.76;54.22;100419.47;4916658;28;70653;-36
2023/08/26 07:23:59;;;;;;;3.08;1.92;;;;;;;33.83;54.62;100419.31;4915927;28;65797;-36
2023/08/26 07:26:29;;;;;;;2.90;1.70;;;;;;;33.88;54.71;100424.81;4919872;28;69396;-35
2023/08/26 07:28:59;;;;;;;3.20;2.03;;;;;;;33.93;54.45;100419.44;4923474;28;65677;-36
2023/08/26 07:31:29;;;;;;;2.97;1.70;;;;;;;33.96;55.08;100424.38;4921909;28;69182;-37
2023/08/26 07:33:59;;;;;;;4.05;1.80;;;;;;;33.99;54.54;100412.97;4913070;28;65826;-37
2023/08/26 07:36:29;;;;;;;2.90;1.35;;;;;;;34.02;55.69;100410.59;4923948;28;70489;-36
2023/08/26 07:38:59;;;;;;;2.17;1.65;;;;;;;34.04;55.52;100399.44;4898343;28;66065;-36
2023/08/26 07:41:29;;;;;;;2.55;1.92;;;;;;;34.09;56.10;100396.00;4915581;28;68603;-36
2023/08/26 07:43:59;;;;;;;2.92;1.75;;;;;;;34.15;55.80;100405.84;4930548;28;65984;-36
2023/08/26 07:46:29;;;;;;;1.88;1.55;;;;;;;34.19;56.17;100393.41;4922515;28;69846;-36
2023/08/26 07:49:02;;;;;;;1.60;1.45;;;;;;;34.24;55.84;100388.00;4916384;28;65602;-45
2023/08/26 07:51:33;;;;;;;2.28;1.90;;;;;;;34.23;55.46;100381.72;4930981;28;70092;-36
2023/08/26 07:54:03;;;;;;;2.40;1.92;;;;;;;34.36;55.42;100398.75;4925520;28;65951;-36
2023/08/26 07:56:34;;;;;;;2.17;1.98;;;;;;;34.38;55.54;100393.84;4909029;28;70333;-36
2023/08/26 07:59:04;;;;;;;2.15;1.50;;;;;;;34.43;55.26;100374.84;4896463;28;66208;-37
2023/08/26 08:01:34;;;;;;;2.35;1.88;;;;;;;34.41;55.12;100363.41;4919031;28;69573;-36
2023/08/26 08:04:05;;;;;;;2.05;1.85;;;;;;;34.52;55.45;100373.34;4921899;28;65846;-36
2023/08/26 08:06:35;;;;;;;1.95;1.75;;;;;;;34.51;55.39;100359.97;4932684;28;69910;-35
2023/08/26 08:09:05;;;;;;;4.72;2.40;;;;;;;34.60;56.53;100348.38;4924277;28;66309;-36
2023/08/26 08:11:35;;;;;;;6.70;2.88;;;;;;;34.64;57.01;100365.84;4910433;28;71232;-36
2023/08/26 08:14:05;;;;;;;3.15;2.85;;;;;;;34.60;57.45;100356.56;4925885;28;66030;-35
2023/08/26 08:16:35;;;;;;;3.30;3.00;;;;;;;34.58;57.23;100358.72;4926216;28;70292;-36
2023/08/26 08:19:11;;;;;;;6.30;3.45;;;;;;;34.54;57.76;100360.25;4917389;28;65344;-34
2023/08/26 08:21:43;;;;;;;10.70;4.93;;;;;;;34.55;56.92;100350.19;4918170;28;69418;-36
2023/08/26 08:24:13;;;;;;;6.03;4.47;;;;;;;34.59;56.74;100356.81;4908918;28;65410;-35
2023/08/26 08:26:46;;;;;;;5.25;4.25;;;;;;;34.57;58.42;100357.06;4913967;28;70029;-35
2023/08/26 08:29:16;;;;;;;6.43;5.22;;;;;;;34.63;59.18;100353.31;4910032;28;65668;-35
2023/08/26 08:31:46;;;;;;;9.30;6.75;;;;;;;34.65;57.47;100361.22;4905968;28;70086;-36
2023/08/26 08:34:16;;;;;;;12.57;5.95;;;;;;;34.65;58.33;100363.94;4911342;28;66003;-35
2023/08/26 08:36:46;;;;;;;6.28;5.68;;;;;;;34.63;57.93;100361.50;4919091;28;70392;-34
2023/08/26 08:39:16;;;;;;;7.30;6.70;;;;;;;34.67;55.26;100364.50;4921767;28;65632;-36
2023/08/26 08:41:49;;;;;;;10.93;7.38;;;;;;;34.69;56.32;100357.72;4925507;28;70849;-35
2023/08/26 08:44:23;;;;;;;11.32;7.15;;;;;;;34.68;56.17;100347.06;4911880;28;66612;-36
2023/08/26 08:46:53;;;;;;;7.20;6.30;;;;;;;34.70;56.33;100337.56;4916459;28;69837;-36
2023/08/26 08:49:23;;;;;;;8.23;6.65;;;;;;;34.66;56.22;100331.00;4916085;28;65809;-35
2023/08/26 08:51:55;;;;;;;9.63;6.97;;;;;;;34.58;55.79;100323.31;4921313;28;70411;-34
2023/08/26 08:54:27;;;;;;;8.15;6.85;;;;;;;34.67;55.53;100348.97;4915476;28;65459;-35
2023/08/26 08:56:58;;;;;;;9.77;7.22;;;;;;;34.60;54.89;100342.09;4914264;28;69607;-35
2023/08/26 08:59:32;;;;;;;8.45;7.50;;;;;;;34.65;55.99;100356.59;4893930;28;65655;-35
2023/08/26 09:02:05;;;;;;;14.80;7.25;;;;;;;34.43;56.49;100321.22;4913508;28;70715;-37
2023/08/26 09:04:36;;;;;;;8.10;7.07;;;;;;;34.63;57.63;100342.41;4921143;28;66132;-36
2023/08/26 09:07:09;;;;;;;8.10;7.40;;;;;;;34.56;57.46;100335.53;4899729;28;70055;-37
2023/08/26 09:09:40;;;;;;;8.60;7.75;;;;;;;34.62;57.68;100351.66;4919268;28;64670;-36
2023/08/26 09:12:29;;;;;;;7.85;6.97;;;;;;;34.34;58.87;100311.06;4912184;28;70931;-35
2023/08/26 09:14:59;;;;;;;8.00;7.20;;;;;;;34.58;59.31;100366.06;4924675;28;66305;-35
2023/08/26 09:17:30;;;;;;;8.77;7.10;;;;;;;34.43;58.98;100337.56;4911427;28;70388;-37
2023/08/26 09:20:01;;;;;;;11.02;6.95;;;;;;;34.11;58.79;100288.50;4918308;28;66693;-35
2023/08/26 09:22:32;;;;;;;7.25;6.65;;;;;;;34.54;58.92;100349.38;4911766;28;69838;-36
2023/08/26 09:25:04;;;;;;;7.05;6.55;;;;;;;34.50;59.45;100348.25;4913677;28;65836;-35
2023/08/26 09:27:44;;;;;;;6.07;5.57;;;;;;;34.51;59.55;100349.88;4910554;28;70088;-36
2023/08/26 09:30:20;;;;;;;6.85;5.30;;;;;;;34.20;59.35;100307.94;4915519;28;66898;-35
2023/08/26 09:32:52;;;;;;;5.55;5.13;;;;;;;34.48;59.51;100361.28;4917621;28;70858;-36
2023/08/26 09:35:22;;;;;;;4.68;4.15;;;;;;;34.48;60.29;100377.63;4926620;28;66897;-36
2023/08/26 09:37:58;;;;;;;5.25;4.75;;;;;;;34.50;60.43;100389.09;4913946;28;70629;-36
2023/08/26 09:40:30;;;;;;;5.95;5.10;;;;;;;34.40;60.40;100375.38;4893154;28;65699;-36
2023/08/26 09:43:04;;;;;;;6.68;6.03;;;;;;;34.51;60.59;100396.19;4918707;28;70148;-36
2023/08/26 09:45:38;;;;;;;8.95;6.53;;;;;;;34.46;61.11;100367.03;4911818;28;66806;-37
2023/08/26 09:48:08;;;;;;;9.52;7.57;;;;;;;34.46;61.00;100379.78;4923330;28;69571;-34
2023/08/26 09:50:38;;;;;;;9.10;8.15;;;;;;;34.32;61.21;100360.31;4898401;28;65908;-35
2023/08/26 09:53:08;;;;;;;10.68;9.63;;;;;;;34.39;62.22;100373.75;4913178;28;71154;-35
2023/08/26 09:55:39;;;;;;;10.32;9.27;;;;;;;34.41;62.13;100382.47;4915425;28;66679;-35
2023/08/26 09:58:18;;;;;;;9.73;8.95;;;;;;;34.39;62.82;100396.34;4915076;28;70671;-36
2023/08/26 10:00:50;;;;;;;13.13;9.75;;;;;;;34.40;62.04;100402.59;4920782;28;65925;-36
2023/08/26 10:03:24;;;;;;;11.27;10.10;;;;;;;34.07;61.99;100349.97;4907903;28;70115;-35
2023/08/26 10:05:58;;;;;;;10.43;9.30;;;;;;;34.29;62.33;100389.97;4922014;28;66589;-35
2023/08/26 10:08:33;;;;;;;14.95;9.82;;;;;;;34.24;61.86;100402.44;4910897;28;70793;-37
2023/08/26 10:11:07;;;;;;;17.00;10.07;;;;;;;34.26;60.39;100419.31;4917199;28;66262;-36
2023/08/26 10:13:39;;;;;;;14.93;10.68;;;;;;;34.33;60.09;100418.34;4916188;28;70884;-37
2023/08/26 10:16:09;;;;;;;;;;;;;;;34.14;60.47;100429.53;4918619;28;66642;-36
2023/08/26 10:18:56;;;;;;;9.45;8.65;;;;;;;34.35;59.74;100443.38;4921402;28;70544;-35
2023/08/26 10:21:27;;;;;;;9.83;9.00;;;;;;;34.31;59.19;100436.81;4920606;28;66580;-37
2023/08/26 10:23:57;;;;;;;9.57;8.88;;;;;;;34.40;59.10;100452.44;4919740;28;69539;-37
2023/08/26 10:26:28;;;;;;;10.23;8.82;;;;;;;34.43;59.20;100456.56;4924086;28;65312;-37
2023/08/26 10:28:59;;;;;;;9.93;8.73;;;;;;;34.44;58.87;100466.38;4919918;28;69270;-35
2023/08/26 10:31:36;;;;;;;11.35;8.10;;;;;;;34.45;58.23;100466.13;4924490;28;65405;-35
2023/08/26 10:34:06;;;;;;;9.15;8.00;;;;;;;34.44;58.29;100458.22;4901888;28;70129;-37
2023/08/26 10:36:38;;;;;;;10.73;8.23;;;;;;;34.03;57.77;100397.81;4919959;28;66171;-36
2023/08/26 10:39:18;;;;;;;10.15;8.07;;;;;;;34.40;57.64;100463.31;4917443;28;69895;-36
2023/08/26 10:42:14;;;;;;;8.88;7.70;;;;;;;34.37;57.84;100473.91;4917037;28;66358;-37
2023/08/26 10:44:57;;;;;;;11.52;7.90;;;;;;;34.08;57.56;100433.28;4929260;28;69973;-37
2023/08/26 10:47:45;;;;;;;8.00;7.40;;;;;;;34.41;57.64;100480.50;4920763;28;65853;-36
2023/08/26 10:50:17;;;;;;;8.52;7.50;;;;;;;34.42;57.56;100482.16;4907892;28;70598;-36
2023/08/26 10:52:53;;;;;;;9.23;6.63;;;;;;;34.41;57.54;100483.25;4916554;28;65418;-36
2023/08/26 10:55:25;;;;;;;10.18;6.88;;;;;;;34.40;57.75;100506.06;4907114;28;70494;-36
2023/08/26 10:58:06;;;;;;;;;;;;;;;34.17;58.34;100507.97;4918650;28;66162;-35
2023/08/26 11:00:38;;;;;;;7.90;7.20;;;;;;;34.36;57.99;100533.00;4916225;28;70736;-36
2023/08/26 11:03:10;;;;;;;6.75;6.25;;;;;;;34.34;57.84;100523.44;4913606;28;66781;-35
2023/08/26 11:05:44;;;;;;;;;;;;;;;34.12;59.14;100546.00;4916063;28;71050;-36
2023/08/26 11:08:14;;;;;;;8.07;7.35;;;;;;;34.32;58.62;100558.25;4915294;28;65656;-35
2023/08/26 11:10:44;;;;;;;9.10;8.05;;;;;;;34.32;58.78;100569.97;4922216;28;69627;-36
2023/08/26 11:13:17;;;;;;;7.90;7.28;;;;;;;34.32;58.66;100569.13;4917677;28;66112;-35
2023/08/26 11:15:59;;;;;;;8.25;7.45;;;;;;;34.20;58.98;100566.53;4916865;28;69908;-36
2023/08/26 11:18:30;;;;;;;7.80;7.20;;;;;;;34.28;59.00;100581.63;4913208;28;66088;-36
2023/08/26 11:21:04;;;;;;;8.65;7.18;;;;;;;33.94;59.07;100535.38;4906253;28;70067;-36
2023/08/26 11:23:35;;;;;;;8.57;7.75;;;;;;;34.23;59.24;100575.00;4913828;28;66464;-36
2023/08/26 11:26:09;;;;;;;8.60;7.95;;;;;;;34.25;59.87;100602.81;4921076;28;70491;-36
2023/08/26 11:28:39;;;;;;;9.68;8.60;;;;;;;34.14;60.55;100602.94;4914693;28;66463;-37
2023/08/26 11:31:11;;;;;;;17.15;9.07;;;;;;;34.04;61.56;100603.53;4914275;28;69893;-36
2023/08/26 11:33:41;;;;;;;11.02;8.77;;;;;;;34.07;61.53;100615.88;4917141;28;66438;-39
2023/08/26 11:36:29;;;;;;;13.65;8.85;;;;;;;33.95;62.69;100608.59;4913492;28;71180;-35
2023/08/26 11:39:00;;;;;;;13.77;8.32;;;;;;;34.00;62.76;100599.69;4919050;28;66544;-36
2023/08/26 11:41:31;;;;;;;16.20;8.52;;;;;;;33.96;63.32;100593.06;4916167;28;70314;-36
2023/08/26 11:44:02;;;;;;;11.98;9.25;;;;;;;33.89;63.22;100578.84;4902385;28;66397;-36